This is the latest recevied weather packets stored in our database for station/object KW6V-15. If no packets are shown the sender has not sent any weather packets the latest 10 day(s).
| Time | Temp. | Humidity | Pressure | Rain* | Wind** | Luminosity | Snow |
|---|---|---|---|---|---|---|---|
| 1788154225 | 53° F | 89% | 759.4 mmHg | 0 in | - | - | - |
| 1788152469 | 53° F | 89% | 759.7 mmHg | 0 in | - | - | - |
| 1788150638 | 53° F | 88% | 759.8 mmHg | 0 in | - | - | - |
| 1788148842 | 54° F | 87% | 759.6 mmHg | 0 in | - | - | - |
| 1788147058 | 55° F | 86% | 759.6 mmHg | 0 in | - | - | - |
| 1788145229 | 56° F | 85% | 759.6 mmHg | 0 in | - | - | - |
| 1788143442 | 57° F | 84% | 759.5 mmHg | 0 in | - | - | - |
| 1788141644 | 58° F | 82% | 759.7 mmHg | 0 in | - | - | - |
| 1788139858 | 59° F | 81% | 759.8 mmHg | 0 in | - | - | - |
| 1788138052 | 61° F | 78% | 759.9 mmHg | 0 in | - | - | - |
| 1788136252 | 64° F | 73% | 759.7 mmHg | 0 in | - | - | - |
| 1788134462 | 67° F | 70% | 759.6 mmHg | 0 in | - | - | - |
| 1788132671 | 68° F | 69% | 759.7 mmHg | 0 in | - | - | - |
| 1788130849 | 69° F | 69% | 759.9 mmHg | 0 in | - | - | - |
| 1788129045 | 68° F | 69% | 760.1 mmHg | 0 in | - | - | - |
| 1788127260 | 68° F | 68% | 760.3 mmHg | 0 in | - | - | - |
| 1788125458 | 66° F | 72% | 760.6 mmHg | 0 in | - | - | - |
| 1788123639 | 68° F | 70% | 760.8 mmHg | 0 in | - | - | - |
| 1788121838 | 69° F | 69% | 760.9 mmHg | 0 in | - | - | - |
| 1788120052 | 68° F | 70% | 761 mmHg | 0 in | - | - | - |
| 1788118259 | 68° F | 69% | 761 mmHg | 0 in | - | - | - |
| 1788116470 | 68° F | 69% | 760.9 mmHg | 0 in | - | - | - |
| 1788114624 | 67° F | 71% | 760.7 mmHg | 0 in | - | - | - |
| 1788112837 | 65° F | 73% | 760.6 mmHg | 0 in | - | - | - |
| 1788111052 | 65° F | 75% | 760.5 mmHg | 0 in | - | - | - |
* Rain latest hour (hover to see other rain measurements)
** Current wind speed in m/s (hover to see current wind gust speed)